sensor_id;sensor_type;location;lat;lon;timestamp;P1;durP1;ratioP1;P2;durP2;ratioP2
37527;SDS011;23372;52.050;4.810;2024-02-26T00:02:16;7.27;;;4.13;;
37527;SDS011;23372;52.050;4.810;2024-02-26T00:04:41;8.37;;;4.80;;
37527;SDS011;23372;52.050;4.810;2024-02-26T00:07:07;7.67;;;4.10;;
37527;SDS011;23372;52.050;4.810;2024-02-26T00:09:33;6.93;;;3.90;;
37527;SDS011;23372;52.050;4.810;2024-02-26T00:12:01;7.00;;;3.50;;
37527;SDS011;23372;52.050;4.810;2024-02-26T00:14:28;9.17;;;4.37;;
37527;SDS011;23372;52.050;4.810;2024-02-26T00:16:54;6.87;;;4.00;;
37527;SDS011;23372;52.050;4.810;2024-02-26T00:19:20;7.20;;;4.13;;
37527;SDS011;23372;52.050;4.810;2024-02-26T00:21:46;7.17;;;3.97;;
37527;SDS011;23372;52.050;4.810;2024-02-26T00:24:11;7.40;;;5.10;;
37527;SDS011;23372;52.050;4.810;2024-02-26T00:26:37;8.13;;;3.93;;
37527;SDS011;23372;52.050;4.810;2024-02-26T00:29:02;8.27;;;4.20;;
37527;SDS011;23372;52.050;4.810;2024-02-26T00:31:28;7.03;;;4.13;;
37527;SDS011;23372;52.050;4.810;2024-02-26T00:33:53;8.60;;;4.53;;
37527;SDS011;23372;52.050;4.810;2024-02-26T00:36:19;6.33;;;4.37;;
37527;SDS011;23372;52.050;4.810;2024-02-26T00:38:44;6.93;;;4.50;;
37527;SDS011;23372;52.050;4.810;2024-02-26T00:41:15;9.23;;;3.83;;
37527;SDS011;23372;52.050;4.810;2024-02-26T00:43:44;7.13;;;3.93;;
37527;SDS011;23372;52.050;4.810;2024-02-26T00:46:09;5.30;;;3.77;;
37527;SDS011;23372;52.050;4.810;2024-02-26T00:48:35;7.33;;;4.37;;
37527;SDS011;23372;52.050;4.810;2024-02-26T00:51:02;6.07;;;4.30;;
37527;SDS011;23372;52.050;4.810;2024-02-26T00:53:30;6.37;;;4.30;;
37527;SDS011;23372;52.050;4.810;2024-02-26T00:55:56;6.93;;;4.67;;
37527;SDS011;23372;52.050;4.810;2024-02-26T00:58:23;7.40;;;4.70;;
37527;SDS011;23372;52.050;4.810;2024-02-26T01:00:49;7.03;;;4.30;;
37527;SDS011;23372;52.050;4.810;2024-02-26T01:03:14;8.17;;;4.47;;
37527;SDS011;23372;52.050;4.810;2024-02-26T01:05:40;5.63;;;3.77;;
37527;SDS011;23372;52.050;4.810;2024-02-26T01:08:06;7.50;;;4.57;;
37527;SDS011;23372;52.050;4.810;2024-02-26T01:10:31;6.40;;;5.10;;
37527;SDS011;23372;52.050;4.810;2024-02-26T01:12:57;7.63;;;4.33;;
37527;SDS011;23372;52.050;4.810;2024-02-26T01:15:22;6.03;;;4.13;;
37527;SDS011;23372;52.050;4.810;2024-02-26T01:17:49;6.20;;;4.87;;
37527;SDS011;23372;52.050;4.810;2024-02-26T01:20:15;6.40;;;4.70;;
37527;SDS011;23372;52.050;4.810;2024-02-26T01:22:42;8.77;;;5.20;;
37527;SDS011;23372;52.050;4.810;2024-02-26T01:25:08;8.40;;;4.50;;
37527;SDS011;23372;52.050;4.810;2024-02-26T01:27:34;7.93;;;5.47;;
37527;SDS011;23372;52.050;4.810;2024-02-26T01:30:01;8.27;;;4.93;;
37527;SDS011;23372;52.050;4.810;2024-02-26T01:32:30;8.70;;;5.40;;
37527;SDS011;23372;52.050;4.810;2024-02-26T01:34:56;10.77;;;5.37;;
37527;SDS011;23372;52.050;4.810;2024-02-26T01:37:21;7.67;;;5.67;;
37527;SDS011;23372;52.050;4.810;2024-02-26T01:39:47;9.93;;;5.50;;
37527;SDS011;23372;52.050;4.810;2024-02-26T01:42:13;8.03;;;5.20;;
37527;SDS011;23372;52.050;4.810;2024-02-26T01:44:38;7.40;;;5.27;;
37527;SDS011;23372;52.050;4.810;2024-02-26T01:47:04;8.73;;;6.60;;
37527;SDS011;23372;52.050;4.810;2024-02-26T01:49:33;8.27;;;5.53;;
37527;SDS011;23372;52.050;4.810;2024-02-26T01:52:00;8.93;;;6.17;;
37527;SDS011;23372;52.050;4.810;2024-02-26T01:54:26;8.80;;;5.47;;
37527;SDS011;23372;52.050;4.810;2024-02-26T01:56:52;8.00;;;5.77;;
37527;SDS011;23372;52.050;4.810;2024-02-26T01:59:19;9.30;;;5.30;;
37527;SDS011;23372;52.050;4.810;2024-02-26T02:01:45;7.23;;;5.03;;
37527;SDS011;23372;52.050;4.810;2024-02-26T02:04:17;9.63;;;6.10;;
37527;SDS011;23372;52.050;4.810;2024-02-26T02:06:43;8.23;;;5.60;;
37527;SDS011;23372;52.050;4.810;2024-02-26T02:09:11;9.30;;;5.40;;
37527;SDS011;23372;52.050;4.810;2024-02-26T02:11:36;12.30;;;6.17;;
37527;SDS011;23372;52.050;4.810;2024-02-26T02:14:02;10.40;;;6.30;;
37527;SDS011;23372;52.050;4.810;2024-02-26T02:16:28;9.63;;;6.37;;
37527;SDS011;23372;52.050;4.810;2024-02-26T02:18:54;10.30;;;5.53;;
37527;SDS011;23372;52.050;4.810;2024-02-26T02:21:19;9.40;;;6.53;;
37527;SDS011;23372;52.050;4.810;2024-02-26T02:23:45;11.97;;;6.07;;
37527;SDS011;23372;52.050;4.810;2024-02-26T02:26:11;11.23;;;7.00;;
37527;SDS011;23372;52.050;4.810;2024-02-26T02:28:38;8.27;;;5.00;;
37527;SDS011;23372;52.050;4.810;2024-02-26T02:31:05;11.83;;;5.53;;
37527;SDS011;23372;52.050;4.810;2024-02-26T02:33:31;10.13;;;5.70;;
37527;SDS011;23372;52.050;4.810;2024-02-26T02:35:57;9.37;;;5.27;;
37527;SDS011;23372;52.050;4.810;2024-02-26T02:38:23;9.40;;;6.40;;
37527;SDS011;23372;52.050;4.810;2024-02-26T02:40:50;11.23;;;6.70;;
37527;SDS011;23372;52.050;4.810;2024-02-26T02:43:16;10.67;;;6.20;;
37527;SDS011;23372;52.050;4.810;2024-02-26T02:45:42;9.40;;;5.93;;
37527;SDS011;23372;52.050;4.810;2024-02-26T02:48:08;9.47;;;5.77;;
37527;SDS011;23372;52.050;4.810;2024-02-26T02:50:33;9.63;;;6.50;;
37527;SDS011;23372;52.050;4.810;2024-02-26T02:52:59;13.23;;;6.33;;
37527;SDS011;23372;52.050;4.810;2024-02-26T02:55:25;9.53;;;6.03;;
37527;SDS011;23372;52.050;4.810;2024-02-26T02:57:51;10.20;;;6.43;;
37527;SDS011;23372;52.050;4.810;2024-02-26T03:00:17;9.97;;;7.03;;
37527;SDS011;23372;52.050;4.810;2024-02-26T03:02:43;13.13;;;6.87;;
37527;SDS011;23372;52.050;4.810;2024-02-26T03:05:10;10.43;;;6.30;;
37527;SDS011;23372;52.050;4.810;2024-02-26T03:07:35;10.77;;;6.57;;
37527;SDS011;23372;52.050;4.810;2024-02-26T03:10:01;10.07;;;6.57;;
37527;SDS011;23372;52.050;4.810;2024-02-26T03:12:26;9.63;;;6.13;;
37527;SDS011;23372;52.050;4.810;2024-02-26T03:14:53;12.43;;;6.50;;
37527;SDS011;23372;52.050;4.810;2024-02-26T03:17:19;10.27;;;6.50;;
37527;SDS011;23372;52.050;4.810;2024-02-26T03:19:46;10.63;;;6.50;;
37527;SDS011;23372;52.050;4.810;2024-02-26T03:22:12;13.27;;;7.70;;
37527;SDS011;23372;52.050;4.810;2024-02-26T03:24:38;9.43;;;5.73;;
37527;SDS011;23372;52.050;4.810;2024-02-26T03:27:04;12.50;;;7.03;;
37527;SDS011;23372;52.050;4.810;2024-02-26T03:29:34;10.37;;;6.33;;
37527;SDS011;23372;52.050;4.810;2024-02-26T03:32:03;11.30;;;6.93;;
37527;SDS011;23372;52.050;4.810;2024-02-26T03:34:29;12.57;;;7.43;;
37527;SDS011;23372;52.050;4.810;2024-02-26T03:36:55;12.17;;;7.67;;
37527;SDS011;23372;52.050;4.810;2024-02-26T03:39:21;13.17;;;7.60;;
37527;SDS011;23372;52.050;4.810;2024-02-26T03:41:47;12.40;;;7.17;;
37527;SDS011;23372;52.050;4.810;2024-02-26T03:44:13;10.87;;;6.97;;
37527;SDS011;23372;52.050;4.810;2024-02-26T03:46:39;13.80;;;7.90;;
37527;SDS011;23372;52.050;4.810;2024-02-26T03:49:04;12.00;;;7.83;;
37527;SDS011;23372;52.050;4.810;2024-02-26T03:51:30;9.23;;;6.23;;
37527;SDS011;23372;52.050;4.810;2024-02-26T03:53:57;10.47;;;7.37;;
37527;SDS011;23372;52.050;4.810;2024-02-26T03:56:23;11.93;;;7.33;;
37527;SDS011;23372;52.050;4.810;2024-02-26T03:58:49;12.30;;;7.60;;
37527;SDS011;23372;52.050;4.810;2024-02-26T04:01:14;13.47;;;8.13;;
37527;SDS011;23372;52.050;4.810;2024-02-26T04:03:40;13.37;;;7.47;;
37527;SDS011;23372;52.050;4.810;2024-02-26T04:06:08;14.57;;;7.97;;
37527;SDS011;23372;52.050;4.810;2024-02-26T04:08:35;12.23;;;7.60;;
37527;SDS011;23372;52.050;4.810;2024-02-26T04:11:01;13.53;;;7.77;;
37527;SDS011;23372;52.050;4.810;2024-02-26T04:13:27;12.93;;;7.87;;
37527;SDS011;23372;52.050;4.810;2024-02-26T04:15:53;13.83;;;8.77;;
37527;SDS011;23372;52.050;4.810;2024-02-26T04:18:18;16.30;;;8.50;;
37527;SDS011;23372;52.050;4.810;2024-02-26T04:20:44;10.83;;;6.20;;
37527;SDS011;23372;52.050;4.810;2024-02-26T04:23:09;13.73;;;8.83;;
37527;SDS011;23372;52.050;4.810;2024-02-26T04:25:35;18.33;;;9.00;;
37527;SDS011;23372;52.050;4.810;2024-02-26T04:28:01;14.27;;;8.77;;
37527;SDS011;23372;52.050;4.810;2024-02-26T04:30:26;13.70;;;8.43;;
37527;SDS011;23372;52.050;4.810;2024-02-26T04:32:52;15.50;;;9.37;;
37527;SDS011;23372;52.050;4.810;2024-02-26T04:35:17;15.27;;;8.77;;
37527;SDS011;23372;52.050;4.810;2024-02-26T04:37:43;15.23;;;9.13;;
37527;SDS011;23372;52.050;4.810;2024-02-26T04:40:08;13.17;;;8.10;;
37527;SDS011;23372;52.050;4.810;2024-02-26T04:42:34;14.20;;;8.87;;
37527;SDS011;23372;52.050;4.810;2024-02-26T04:45:00;17.33;;;10.30;;
37527;SDS011;23372;52.050;4.810;2024-02-26T04:47:25;14.67;;;9.73;;
37527;SDS011;23372;52.050;4.810;2024-02-26T04:49:51;14.13;;;8.40;;
37527;SDS011;23372;52.050;4.810;2024-02-26T04:52:17;17.90;;;9.93;;
37527;SDS011;23372;52.050;4.810;2024-02-26T04:54:43;14.37;;;8.13;;
37527;SDS011;23372;52.050;4.810;2024-02-26T04:57:09;16.30;;;10.00;;
37527;SDS011;23372;52.050;4.810;2024-02-26T04:59:34;14.97;;;9.17;;
37527;SDS011;23372;52.050;4.810;2024-02-26T05:02:00;14.90;;;9.50;;
37527;SDS011;23372;52.050;4.810;2024-02-26T05:04:25;15.97;;;9.27;;
37527;SDS011;23372;52.050;4.810;2024-02-26T05:06:51;19.30;;;10.20;;
37527;SDS011;23372;52.050;4.810;2024-02-26T05:09:16;15.57;;;9.03;;
37527;SDS011;23372;52.050;4.810;2024-02-26T05:11:42;14.40;;;8.47;;
37527;SDS011;23372;52.050;4.810;2024-02-26T05:14:08;12.87;;;7.97;;
37527;SDS011;23372;52.050;4.810;2024-02-26T05:16:33;16.03;;;9.70;;
37527;SDS011;23372;52.050;4.810;2024-02-26T05:18:59;14.17;;;8.43;;
37527;SDS011;23372;52.050;4.810;2024-02-26T05:21:24;14.33;;;8.60;;
37527;SDS011;23372;52.050;4.810;2024-02-26T05:23:50;15.33;;;9.07;;
37527;SDS011;23372;52.050;4.810;2024-02-26T05:26:19;15.93;;;9.40;;
37527;SDS011;23372;52.050;4.810;2024-02-26T05:28:48;13.57;;;7.80;;
37527;SDS011;23372;52.050;4.810;2024-02-26T05:31:14;13.70;;;8.40;;
37527;SDS011;23372;52.050;4.810;2024-02-26T05:33:40;16.83;;;8.97;;
37527;SDS011;23372;52.050;4.810;2024-02-26T05:36:06;15.37;;;9.33;;
37527;SDS011;23372;52.050;4.810;2024-02-26T05:38:31;14.30;;;8.23;;
37527;SDS011;23372;52.050;4.810;2024-02-26T05:40:57;16.77;;;9.03;;
37527;SDS011;23372;52.050;4.810;2024-02-26T05:43:26;16.53;;;9.70;;
37527;SDS011;23372;52.050;4.810;2024-02-26T05:45:52;14.03;;;8.03;;
37527;SDS011;23372;52.050;4.810;2024-02-26T05:48:18;13.33;;;7.90;;
37527;SDS011;23372;52.050;4.810;2024-02-26T05:50:44;13.93;;;8.83;;
37527;SDS011;23372;52.050;4.810;2024-02-26T05:53:10;15.57;;;9.17;;
37527;SDS011;23372;52.050;4.810;2024-02-26T05:55:36;15.50;;;8.20;;
37527;SDS011;23372;52.050;4.810;2024-02-26T05:58:02;14.20;;;8.27;;
37527;SDS011;23372;52.050;4.810;2024-02-26T06:00:28;14.93;;;9.27;;
37527;SDS011;23372;52.050;4.810;2024-02-26T06:02:54;16.50;;;9.07;;
37527;SDS011;23372;52.050;4.810;2024-02-26T06:05:19;14.50;;;8.27;;
37527;SDS011;23372;52.050;4.810;2024-02-26T06:07:45;12.43;;;6.83;;
37527;SDS011;23372;52.050;4.810;2024-02-26T06:10:10;17.80;;;9.60;;
37527;SDS011;23372;52.050;4.810;2024-02-26T06:12:38;17.27;;;9.53;;
37527;SDS011;23372;52.050;4.810;2024-02-26T06:15:05;18.40;;;8.53;;
37527;SDS011;23372;52.050;4.810;2024-02-26T06:17:31;18.90;;;11.40;;
37527;SDS011;23372;52.050;4.810;2024-02-26T06:19:56;19.47;;;10.67;;
37527;SDS011;23372;52.050;4.810;2024-02-26T06:22:24;18.73;;;10.50;;
37527;SDS011;23372;52.050;4.810;2024-02-26T06:24:49;17.90;;;10.67;;
37527;SDS011;23372;52.050;4.810;2024-02-26T06:27:15;18.27;;;10.83;;
37527;SDS011;23372;52.050;4.810;2024-02-26T06:29:40;19.73;;;10.63;;
37527;SDS011;23372;52.050;4.810;2024-02-26T06:32:06;20.80;;;11.27;;
37527;SDS011;23372;52.050;4.810;2024-02-26T06:34:31;17.73;;;9.87;;
37527;SDS011;23372;52.050;4.810;2024-02-26T06:36:57;21.33;;;11.50;;
37527;SDS011;23372;52.050;4.810;2024-02-26T06:39:23;22.53;;;11.83;;
37527;SDS011;23372;52.050;4.810;2024-02-26T06:41:48;20.53;;;12.30;;
37527;SDS011;23372;52.050;4.810;2024-02-26T06:44:14;18.30;;;9.77;;
37527;SDS011;23372;52.050;4.810;2024-02-26T06:46:39;18.90;;;9.83;;
37527;SDS011;23372;52.050;4.810;2024-02-26T06:49:05;16.37;;;9.97;;
37527;SDS011;23372;52.050;4.810;2024-02-26T06:51:30;20.27;;;11.23;;
37527;SDS011;23372;52.050;4.810;2024-02-26T06:53:56;22.17;;;12.37;;
37527;SDS011;23372;52.050;4.810;2024-02-26T06:56:22;24.73;;;13.13;;
37527;SDS011;23372;52.050;4.810;2024-02-26T06:58:48;24.80;;;12.47;;
37527;SDS011;23372;52.050;4.810;2024-02-26T07:01:13;24.43;;;12.03;;
37527;SDS011;23372;52.050;4.810;2024-02-26T07:03:42;24.50;;;13.97;;
37527;SDS011;23372;52.050;4.810;2024-02-26T07:06:08;22.83;;;12.97;;
37527;SDS011;23372;52.050;4.810;2024-02-26T07:08:34;25.53;;;14.30;;
37527;SDS011;23372;52.050;4.810;2024-02-26T07:10:59;24.17;;;14.13;;
37527;SDS011;23372;52.050;4.810;2024-02-26T07:13:25;26.63;;;13.33;;
37527;SDS011;23372;52.050;4.810;2024-02-26T07:15:50;23.47;;;12.70;;
37527;SDS011;23372;52.050;4.810;2024-02-26T07:18:16;29.37;;;16.53;;
37527;SDS011;23372;52.050;4.810;2024-02-26T07:20:41;28.40;;;16.00;;
37527;SDS011;23372;52.050;4.810;2024-02-26T07:23:07;30.60;;;16.97;;
37527;SDS011;23372;52.050;4.810;2024-02-26T07:25:32;27.20;;;14.40;;
37527;SDS011;23372;52.050;4.810;2024-02-26T07:27:58;31.57;;;16.97;;
37527;SDS011;23372;52.050;4.810;2024-02-26T07:30:23;27.87;;;16.23;;
37527;SDS011;23372;52.050;4.810;2024-02-26T07:32:49;28.63;;;16.87;;
37527;SDS011;23372;52.050;4.810;2024-02-26T07:35:15;27.83;;;15.10;;
37527;SDS011;23372;52.050;4.810;2024-02-26T07:37:42;24.40;;;13.97;;
37527;SDS011;23372;52.050;4.810;2024-02-26T07:40:08;27.97;;;17.13;;
37527;SDS011;23372;52.050;4.810;2024-02-26T07:42:34;27.27;;;16.07;;
37527;SDS011;23372;52.050;4.810;2024-02-26T07:44:59;27.63;;;17.27;;
37527;SDS011;23372;52.050;4.810;2024-02-26T07:47:25;28.50;;;17.20;;
37527;SDS011;23372;52.050;4.810;2024-02-26T07:49:50;30.23;;;15.43;;
37527;SDS011;23372;52.050;4.810;2024-02-26T07:52:16;23.97;;;13.57;;
37527;SDS011;23372;52.050;4.810;2024-02-26T07:54:41;26.40;;;15.47;;
37527;SDS011;23372;52.050;4.810;2024-02-26T07:57:07;27.70;;;15.80;;
37527;SDS011;23372;52.050;4.810;2024-02-26T07:59:33;26.97;;;16.03;;
37527;SDS011;23372;52.050;4.810;2024-02-26T08:01:58;24.73;;;15.40;;
37527;SDS011;23372;52.050;4.810;2024-02-26T08:04:24;26.20;;;15.07;;
37527;SDS011;23372;52.050;4.810;2024-02-26T08:06:51;23.57;;;14.20;;
37527;SDS011;23372;52.050;4.810;2024-02-26T08:09:17;24.47;;;13.87;;
37527;SDS011;23372;52.050;4.810;2024-02-26T08:11:42;21.33;;;13.17;;
37527;SDS011;23372;52.050;4.810;2024-02-26T08:14:08;26.93;;;14.87;;
37527;SDS011;23372;52.050;4.810;2024-02-26T08:16:33;19.67;;;12.10;;
37527;SDS011;23372;52.050;4.810;2024-02-26T08:18:59;24.03;;;13.63;;
37527;SDS011;23372;52.050;4.810;2024-02-26T08:21:24;19.03;;;12.33;;
37527;SDS011;23372;52.050;4.810;2024-02-26T08:23:50;20.97;;;12.87;;
37527;SDS011;23372;52.050;4.810;2024-02-26T08:26:15;22.03;;;13.03;;
37527;SDS011;23372;52.050;4.810;2024-02-26T08:28:41;20.77;;;12.03;;
37527;SDS011;23372;52.050;4.810;2024-02-26T08:31:06;20.87;;;12.43;;
37527;SDS011;23372;52.050;4.810;2024-02-26T08:33:32;16.00;;;9.83;;
37527;SDS011;23372;52.050;4.810;2024-02-26T08:36:02;21.50;;;12.50;;
37527;SDS011;23372;52.050;4.810;2024-02-26T08:38:29;20.27;;;11.70;;
37527;SDS011;23372;52.050;4.810;2024-02-26T08:40:55;21.23;;;11.37;;
37527;SDS011;23372;52.050;4.810;2024-02-26T08:43:20;20.17;;;11.87;;
37527;SDS011;23372;52.050;4.810;2024-02-26T08:45:46;16.93;;;10.40;;
37527;SDS011;23372;52.050;4.810;2024-02-26T08:48:11;14.87;;;8.37;;
37527;SDS011;23372;52.050;4.810;2024-02-26T08:50:37;15.50;;;8.53;;
37527;SDS011;23372;52.050;4.810;2024-02-26T08:53:02;16.63;;;10.20;;
37527;SDS011;23372;52.050;4.810;2024-02-26T08:55:29;14.93;;;9.07;;
37527;SDS011;23372;52.050;4.810;2024-02-26T08:57:54;17.13;;;9.50;;
37527;SDS011;23372;52.050;4.810;2024-02-26T09:00:20;14.67;;;9.43;;
37527;SDS011;23372;52.050;4.810;2024-02-26T09:02:47;13.10;;;8.00;;
37527;SDS011;23372;52.050;4.810;2024-02-26T09:05:12;15.53;;;8.37;;
37527;SDS011;23372;52.050;4.810;2024-02-26T09:07:38;14.07;;;8.77;;
37527;SDS011;23372;52.050;4.810;2024-02-26T09:10:04;12.33;;;7.70;;
37527;SDS011;23372;52.050;4.810;2024-02-26T09:12:31;12.80;;;7.20;;
37527;SDS011;23372;52.050;4.810;2024-02-26T09:14:56;12.23;;;7.33;;
37527;SDS011;23372;52.050;4.810;2024-02-26T09:17:22;12.23;;;7.53;;
37527;SDS011;23372;52.050;4.810;2024-02-26T09:19:48;14.07;;;7.27;;
37527;SDS011;23372;52.050;4.810;2024-02-26T09:22:13;8.50;;;5.53;;
37527;SDS011;23372;52.050;4.810;2024-02-26T09:24:39;12.10;;;8.00;;
37527;SDS011;23372;52.050;4.810;2024-02-26T09:27:05;10.37;;;6.33;;
37527;SDS011;23372;52.050;4.810;2024-02-26T09:29:30;10.47;;;6.43;;
37527;SDS011;23372;52.050;4.810;2024-02-26T09:31:56;11.30;;;5.93;;
37527;SDS011;23372;52.050;4.810;2024-02-26T09:34:21;10.23;;;5.70;;
37527;SDS011;23372;52.050;4.810;2024-02-26T09:36:47;9.40;;;5.97;;
37527;SDS011;23372;52.050;4.810;2024-02-26T09:39:12;10.23;;;6.10;;
37527;SDS011;23372;52.050;4.810;2024-02-26T09:41:39;8.03;;;4.90;;
37527;SDS011;23372;52.050;4.810;2024-02-26T09:44:05;9.47;;;6.60;;
37527;SDS011;23372;52.050;4.810;2024-02-26T09:46:31;10.43;;;6.53;;
37527;SDS011;23372;52.050;4.810;2024-02-26T09:48:57;11.60;;;5.87;;
37527;SDS011;23372;52.050;4.810;2024-02-26T09:51:23;10.97;;;6.23;;
37527;SDS011;23372;52.050;4.810;2024-02-26T09:53:52;10.43;;;5.57;;
37527;SDS011;23372;52.050;4.810;2024-02-26T09:56:18;9.10;;;5.57;;
37527;SDS011;23372;52.050;4.810;2024-02-26T09:58:44;10.40;;;5.70;;
37527;SDS011;23372;52.050;4.810;2024-02-26T10:01:16;8.60;;;4.53;;
37527;SDS011;23372;52.050;4.810;2024-02-26T10:03:42;9.70;;;5.77;;
37527;SDS011;23372;52.050;4.810;2024-02-26T10:06:10;8.07;;;5.30;;
37527;SDS011;23372;52.050;4.810;2024-02-26T10:08:36;8.83;;;5.33;;
37527;SDS011;23372;52.050;4.810;2024-02-26T10:11:03;10.03;;;6.77;;
37527;SDS011;23372;52.050;4.810;2024-02-26T10:13:30;10.30;;;5.60;;
37527;SDS011;23372;52.050;4.810;2024-02-26T10:15:55;10.67;;;5.90;;
37527;SDS011;23372;52.050;4.810;2024-02-26T10:18:22;9.90;;;5.40;;
37527;SDS011;23372;52.050;4.810;2024-02-26T10:21:01;10.83;;;5.93;;
37527;SDS011;23372;52.050;4.810;2024-02-26T10:23:27;10.83;;;5.80;;
37527;SDS011;23372;52.050;4.810;2024-02-26T10:25:53;8.10;;;5.10;;
37527;SDS011;23372;52.050;4.810;2024-02-26T10:28:20;9.60;;;5.97;;
37527;SDS011;23372;52.050;4.810;2024-02-26T10:30:45;9.77;;;5.70;;
37527;SDS011;23372;52.050;4.810;2024-02-26T10:33:11;9.53;;;6.07;;
37527;SDS011;23372;52.050;4.810;2024-02-26T10:35:38;11.07;;;6.63;;
37527;SDS011;23372;52.050;4.810;2024-02-26T10:38:06;11.53;;;6.30;;
37527;SDS011;23372;52.050;4.810;2024-02-26T10:40:32;11.93;;;6.07;;
37527;SDS011;23372;52.050;4.810;2024-02-26T10:42:58;10.27;;;6.10;;
37527;SDS011;23372;52.050;4.810;2024-02-26T10:45:23;10.20;;;6.13;;
37527;SDS011;23372;52.050;4.810;2024-02-26T10:47:49;10.57;;;5.93;;
37527;SDS011;23372;52.050;4.810;2024-02-26T10:50:15;12.43;;;5.80;;
37527;SDS011;23372;52.050;4.810;2024-02-26T10:52:41;9.93;;;6.03;;
37527;SDS011;23372;52.050;4.810;2024-02-26T10:55:07;10.53;;;6.23;;
37527;SDS011;23372;52.050;4.810;2024-02-26T10:57:39;12.07;;;5.40;;
37527;SDS011;23372;52.050;4.810;2024-02-26T11:00:05;9.67;;;6.33;;
37527;SDS011;23372;52.050;4.810;2024-02-26T11:02:32;10.07;;;6.13;;
37527;SDS011;23372;52.050;4.810;2024-02-26T11:05:05;12.17;;;6.87;;
37527;SDS011;23372;52.050;4.810;2024-02-26T11:07:32;11.50;;;6.20;;
37527;SDS011;23372;52.050;4.810;2024-02-26T11:10:00;11.00;;;6.87;;
37527;SDS011;23372;52.050;4.810;2024-02-26T11:12:28;9.87;;;6.13;;
37527;SDS011;23372;52.050;4.810;2024-02-26T11:14:55;10.73;;;6.10;;
37527;SDS011;23372;52.050;4.810;2024-02-26T11:17:22;13.60;;;6.37;;
37527;SDS011;23372;52.050;4.810;2024-02-26T11:19:56;9.67;;;6.30;;
37527;SDS011;23372;52.050;4.810;2024-02-26T11:22:27;10.03;;;6.53;;
37527;SDS011;23372;52.050;4.810;2024-02-26T11:24:54;11.20;;;6.37;;
37527;SDS011;23372;52.050;4.810;2024-02-26T11:27:23;10.47;;;5.93;;
37527;SDS011;23372;52.050;4.810;2024-02-26T11:29:54;16.47;;;7.23;;
37527;SDS011;23372;52.050;4.810;2024-02-26T11:32:22;9.53;;;6.17;;
37527;SDS011;23372;52.050;4.810;2024-02-26T11:34:48;10.77;;;6.23;;
37527;SDS011;23372;52.050;4.810;2024-02-26T11:37:15;10.63;;;6.30;;
37527;SDS011;23372;52.050;4.810;2024-02-26T11:39:42;11.27;;;6.83;;
37527;SDS011;23372;52.050;4.810;2024-02-26T11:42:09;12.60;;;6.70;;
37527;SDS011;23372;52.050;4.810;2024-02-26T11:44:38;11.10;;;6.60;;
37527;SDS011;23372;52.050;4.810;2024-02-26T11:47:10;14.93;;;6.07;;
37527;SDS011;23372;52.050;4.810;2024-02-26T11:49:46;9.83;;;6.10;;
37527;SDS011;23372;52.050;4.810;2024-02-26T11:52:13;11.40;;;6.83;;
37527;SDS011;23372;52.050;4.810;2024-02-26T11:57:21;11.63;;;6.00;;
37527;SDS011;23372;52.050;4.810;2024-02-26T11:59:48;9.23;;;5.80;;
37527;SDS011;23372;52.050;4.810;2024-02-26T12:07:48;11.23;;;6.83;;
37527;SDS011;23372;52.050;4.810;2024-02-26T12:12:54;10.13;;;6.13;;
37527;SDS011;23372;52.050;4.810;2024-02-26T12:15:24;11.90;;;6.27;;
37527;SDS011;23372;52.050;4.810;2024-02-26T12:17:54;9.40;;;5.50;;
37527;SDS011;23372;52.050;4.810;2024-02-26T12:20:21;10.23;;;5.87;;
37527;SDS011;23372;52.050;4.810;2024-02-26T12:22:47;9.67;;;5.80;;
37527;SDS011;23372;52.050;4.810;2024-02-26T12:25:15;9.83;;;5.97;;
37527;SDS011;23372;52.050;4.810;2024-02-26T12:27:41;9.93;;;5.70;;
37527;SDS011;23372;52.050;4.810;2024-02-26T12:30:06;12.43;;;6.13;;
37527;SDS011;23372;52.050;4.810;2024-02-26T12:32:33;9.37;;;5.60;;
37527;SDS011;23372;52.050;4.810;2024-02-26T12:34:59;8.23;;;5.70;;
37527;SDS011;23372;52.050;4.810;2024-02-26T12:37:25;9.97;;;6.37;;
37527;SDS011;23372;52.050;4.810;2024-02-26T12:39:52;10.67;;;5.40;;
37527;SDS011;23372;52.050;4.810;2024-02-26T12:42:18;10.40;;;5.70;;
37527;SDS011;23372;52.050;4.810;2024-02-26T12:44:46;8.93;;;4.87;;
37527;SDS011;23372;52.050;4.810;2024-02-26T12:47:12;8.67;;;5.50;;
37527;SDS011;23372;52.050;4.810;2024-02-26T12:49:42;8.57;;;5.57;;
37527;SDS011;23372;52.050;4.810;2024-02-26T12:52:08;10.03;;;5.50;;
37527;SDS011;23372;52.050;4.810;2024-02-26T12:54:35;8.27;;;5.63;;
37527;SDS011;23372;52.050;4.810;2024-02-26T12:57:04;7.80;;;5.30;;
37527;SDS011;23372;52.050;4.810;2024-02-26T12:59:31;9.73;;;5.30;;
37527;SDS011;23372;52.050;4.810;2024-02-26T13:01:58;9.37;;;5.23;;
37527;SDS011;23372;52.050;4.810;2024-02-26T13:04:24;8.47;;;5.27;;
37527;SDS011;23372;52.050;4.810;2024-02-26T13:06:52;9.83;;;5.07;;
37527;SDS011;23372;52.050;4.810;2024-02-26T13:09:18;9.73;;;5.33;;
37527;SDS011;23372;52.050;4.810;2024-02-26T13:11:44;6.93;;;4.77;;
37527;SDS011;23372;52.050;4.810;2024-02-26T13:14:22;7.57;;;4.87;;
37527;SDS011;23372;52.050;4.810;2024-02-26T13:16:57;7.63;;;5.03;;
37527;SDS011;23372;52.050;4.810;2024-02-26T13:19:23;7.33;;;4.73;;
37527;SDS011;23372;52.050;4.810;2024-02-26T13:21:49;7.10;;;4.47;;
37527;SDS011;23372;52.050;4.810;2024-02-26T13:24:15;7.57;;;4.43;;
37527;SDS011;23372;52.050;4.810;2024-02-26T13:26:41;10.60;;;5.33;;
37527;SDS011;23372;52.050;4.810;2024-02-26T13:29:07;6.50;;;3.93;;
37527;SDS011;23372;52.050;4.810;2024-02-26T13:31:38;8.40;;;4.50;;
37527;SDS011;23372;52.050;4.810;2024-02-26T13:34:05;7.33;;;4.50;;
37527;SDS011;23372;52.050;4.810;2024-02-26T13:36:30;6.10;;;4.10;;
37527;SDS011;23372;52.050;4.810;2024-02-26T13:38:56;6.13;;;4.00;;
37527;SDS011;23372;52.050;4.810;2024-02-26T13:41:22;6.90;;;4.40;;
37527;SDS011;23372;52.050;4.810;2024-02-26T13:43:48;7.47;;;4.90;;
37527;SDS011;23372;52.050;4.810;2024-02-26T13:46:14;7.53;;;4.20;;
37527;SDS011;23372;52.050;4.810;2024-02-26T13:48:40;7.00;;;3.93;;
37527;SDS011;23372;52.050;4.810;2024-02-26T13:51:06;7.03;;;3.87;;
37527;SDS011;23372;52.050;4.810;2024-02-26T13:53:32;8.87;;;4.00;;
37527;SDS011;23372;52.050;4.810;2024-02-26T13:55:58;5.90;;;3.13;;
37527;SDS011;23372;52.050;4.810;2024-02-26T13:58:26;6.13;;;3.80;;
37527;SDS011;23372;52.050;4.810;2024-02-26T14:00:52;6.57;;;3.10;;
37527;SDS011;23372;52.050;4.810;2024-02-26T14:03:19;9.07;;;3.73;;
37527;SDS011;23372;52.050;4.810;2024-02-26T14:05:45;7.17;;;3.83;;
37527;SDS011;23372;52.050;4.810;2024-02-26T14:08:11;4.50;;;2.87;;
37527;SDS011;23372;52.050;4.810;2024-02-26T14:10:36;9.13;;;3.27;;
37527;SDS011;23372;52.050;4.810;2024-02-26T14:13:02;5.13;;;3.30;;
37527;SDS011;23372;52.050;4.810;2024-02-26T14:15:28;5.33;;;2.97;;
37527;SDS011;23372;52.050;4.810;2024-02-26T14:17:54;7.53;;;3.30;;
37527;SDS011;23372;52.050;4.810;2024-02-26T14:20:21;6.47;;;3.40;;
37527;SDS011;23372;52.050;4.810;2024-02-26T14:22:49;6.80;;;3.00;;
37527;SDS011;23372;52.050;4.810;2024-02-26T14:25:15;4.80;;;3.13;;
37527;SDS011;23372;52.050;4.810;2024-02-26T14:27:41;7.83;;;3.80;;
37527;SDS011;23372;52.050;4.810;2024-02-26T14:30:06;4.60;;;2.67;;
37527;SDS011;23372;52.050;4.810;2024-02-26T14:32:32;6.73;;;3.40;;
37527;SDS011;23372;52.050;4.810;2024-02-26T14:35:00;5.83;;;3.07;;
37527;SDS011;23372;52.050;4.810;2024-02-26T14:37:25;4.50;;;2.97;;
37527;SDS011;23372;52.050;4.810;2024-02-26T14:39:51;6.80;;;3.00;;
37527;SDS011;23372;52.050;4.810;2024-02-26T14:42:18;5.67;;;3.13;;
37527;SDS011;23372;52.050;4.810;2024-02-26T14:44:43;4.93;;;2.83;;